createdAt,value
2023-01-08T00:01:21.405Z,9.30
2023-01-08T00:03:48.942Z,9.30
2023-01-08T00:06:19.455Z,9.28
2023-01-08T00:08:46.713Z,9.26
2023-01-08T00:11:14.597Z,9.24
2023-01-08T00:13:41.767Z,9.19
2023-01-08T00:16:15.217Z,9.15
2023-01-08T00:18:42.688Z,9.10
2023-01-08T00:21:09.842Z,9.07
2023-01-08T00:23:37.269Z,9.03
2023-01-08T00:26:07.652Z,9.03
2023-01-08T00:28:36.002Z,9.03
2023-01-08T00:31:07.630Z,9.02
2023-01-08T00:33:35.743Z,9.00
2023-01-08T00:36:13.542Z,9.01
2023-01-08T00:38:40.728Z,9.00
2023-01-08T00:41:08.078Z,8.97
2023-01-08T00:43:35.644Z,8.93
2023-01-08T00:46:03.307Z,8.86
2023-01-08T00:48:31.226Z,8.79
2023-01-08T00:50:58.162Z,8.72
2023-01-08T00:53:25.069Z,8.69
2023-01-08T00:56:04.844Z,8.72
2023-01-08T00:58:32.163Z,8.79
2023-01-08T01:00:59.496Z,8.87
2023-01-08T01:03:26.579Z,8.93
2023-01-08T01:06:07.495Z,8.98
2023-01-08T01:08:34.967Z,9.00
2023-01-08T01:11:11.207Z,9.06
2023-01-08T01:13:38.230Z,9.10
2023-01-08T01:16:05.613Z,9.15
2023-01-08T01:18:32.520Z,9.17
2023-01-08T01:20:59.430Z,9.21
2023-01-08T01:23:26.486Z,9.24
2023-01-08T01:25:54.420Z,9.29
2023-01-08T01:28:21.345Z,9.30
2023-01-08T01:30:55.572Z,9.33
2023-01-08T01:33:22.921Z,9.32
2023-01-08T01:35:58.529Z,9.31
2023-01-08T01:38:25.432Z,9.25
2023-01-08T01:40:52.344Z,9.24
2023-01-08T01:43:42.800Z,9.22
2023-01-08T01:46:37.256Z,9.23
2023-01-08T01:49:20.874Z,9.25
2023-01-08T01:51:56.472Z,9.26
2023-01-08T01:54:24.101Z,9.31
2023-01-08T01:56:51.375Z,9.34
2023-01-08T01:59:18.384Z,9.36
2023-01-08T02:01:46.382Z,9.38
2023-01-08T02:04:14.313Z,9.39
2023-01-08T02:06:54.563Z,9.41
2023-01-08T02:10:07.808Z,9.40
2023-01-08T02:12:44.543Z,9.40
2023-01-08T02:15:28.768Z,9.38
2023-01-08T02:18:20.916Z,9.35
2023-01-08T02:20:57.032Z,9.35
2023-01-08T02:24:10.337Z,9.33
2023-01-08T02:26:37.713Z,9.30
2023-01-08T02:29:19.845Z,9.30
2023-01-08T02:31:47.675Z,9.28
2023-01-08T02:34:14.638Z,9.28
2023-01-08T02:36:52.586Z,9.25
2023-01-08T02:39:56.944Z,9.15
2023-01-08T02:42:40.606Z,9.10
2023-01-08T02:45:16.271Z,8.99
2023-01-08T02:47:49.638Z,8.89
2023-01-08T02:50:47.569Z,8.78
2023-01-08T02:53:23.250Z,8.66
2023-01-08T02:55:55.688Z,8.56
2023-01-08T02:58:25.897Z,8.49
2023-01-08T03:00:54.534Z,8.41
2023-01-08T03:03:28.433Z,8.38
2023-01-08T03:06:12.919Z,8.33
2023-01-08T03:08:43.819Z,8.30
2023-01-08T03:11:15.135Z,8.26
2023-01-08T03:14:05.147Z,8.22
2023-01-08T03:16:47.568Z,8.19
2023-01-08T03:19:37.870Z,8.15
2023-01-08T03:22:11.389Z,8.13
2023-01-08T03:24:41.495Z,8.10
2023-01-08T03:27:16.492Z,8.08
2023-01-08T03:29:46.145Z,8.07
2023-01-08T03:32:17.399Z,8.09
2023-01-08T03:34:48.090Z,8.11
2023-01-08T03:37:19.919Z,8.15
2023-01-08T03:40:03.372Z,8.22
2023-01-08T03:42:32.352Z,8.29
2023-01-08T03:45:00.576Z,8.34
2023-01-08T03:47:31.345Z,8.37
2023-01-08T03:50:03.229Z,8.40
2023-01-08T03:52:32.869Z,8.41
2023-01-08T03:54:59.819Z,8.38
2023-01-08T03:57:27.047Z,8.35
2023-01-08T03:59:54.106Z,8.33
2023-01-08T04:02:21.130Z,8.30
2023-01-08T04:04:48.436Z,8.26
2023-01-08T04:07:15.375Z,8.22
2023-01-08T04:09:42.265Z,8.20
2023-01-08T04:12:09.211Z,8.17
2023-01-08T04:14:36.131Z,8.15
2023-01-08T04:17:03.056Z,8.12
2023-01-08T04:19:30.028Z,8.10
2023-01-08T04:21:57.009Z,8.08
2023-01-08T04:24:24.937Z,8.08
2023-01-08T04:26:51.887Z,8.09
2023-01-08T04:29:18.785Z,8.09
2023-01-08T04:31:45.703Z,8.08
2023-01-08T04:34:12.790Z,8.09
2023-01-08T04:36:39.818Z,8.11
2023-01-08T04:39:08.271Z,8.13
2023-01-08T04:41:35.195Z,8.17
2023-01-08T04:44:02.088Z,8.20
2023-01-08T04:46:29.151Z,8.24
2023-01-08T04:48:56.260Z,8.24
2023-01-08T04:51:23.807Z,8.24
2023-01-08T04:53:50.718Z,8.22
2023-01-08T04:56:17.612Z,8.21
2023-01-08T04:58:44.621Z,8.20
2023-01-08T05:01:20.046Z,8.19
2023-01-08T05:03:47.418Z,8.19
2023-01-08T05:06:14.426Z,8.19
2023-01-08T05:08:41.375Z,8.18
2023-01-08T05:11:08.473Z,8.18
2023-01-08T05:13:35.414Z,8.19
2023-01-08T05:16:02.514Z,8.16
2023-01-08T05:18:30.608Z,8.15
2023-01-08T05:21:05.098Z,8.14
2023-01-08T05:23:33.285Z,8.12
2023-01-08T05:26:01.872Z,8.09
2023-01-08T05:28:29.691Z,8.07
2023-01-08T05:30:57.493Z,8.04
2023-01-08T05:33:25.056Z,8.02
2023-01-08T05:35:52.028Z,8.01
2023-01-08T05:38:18.939Z,7.98
2023-01-08T05:40:45.855Z,7.98
2023-01-08T05:43:12.942Z,7.97
2023-01-08T05:45:39.943Z,7.96
2023-01-08T05:48:08.048Z,7.96
2023-01-08T05:50:35.527Z,7.96
2023-01-08T05:53:06.509Z,7.93
2023-01-08T05:55:33.444Z,7.91
2023-01-08T05:58:05.198Z,7.90
2023-01-08T06:00:34.501Z,7.90
2023-01-08T06:03:01.581Z,7.91
2023-01-08T06:05:29.876Z,7.91
2023-01-08T06:07:57.973Z,7.92
2023-01-08T06:10:25.462Z,7.92
2023-01-08T06:12:52.362Z,7.92
2023-01-08T06:15:19.428Z,7.96
2023-01-08T06:17:46.357Z,7.96
2023-01-08T06:20:13.370Z,7.97
2023-01-08T06:22:40.420Z,7.98
2023-01-08T06:25:07.721Z,8.00
2023-01-08T06:27:34.646Z,8.00
2023-01-08T06:30:01.595Z,8.01
2023-01-08T06:32:28.509Z,8.01
2023-01-08T06:34:55.405Z,8.01
2023-01-08T06:37:22.299Z,8.01
2023-01-08T06:39:49.218Z,8.03
2023-01-08T06:42:16.175Z,8.04
2023-01-08T06:44:43.078Z,8.03
2023-01-08T06:47:10.013Z,8.06
2023-01-08T06:49:36.915Z,8.06
2023-01-08T06:52:03.904Z,8.07
2023-01-08T06:54:30.799Z,8.08
2023-01-08T06:56:57.725Z,8.09
2023-01-08T06:59:24.641Z,8.09
2023-01-08T07:01:51.753Z,8.08
2023-01-08T07:04:19.539Z,8.08
2023-01-08T07:06:47.209Z,8.09
2023-01-08T07:09:15.825Z,8.09
2023-01-08T07:11:43.084Z,8.09
2023-01-08T07:14:10.121Z,8.08
2023-01-08T07:16:37.251Z,8.09
2023-01-08T07:19:04.471Z,8.08
2023-01-08T07:21:31.709Z,8.06
2023-01-08T07:23:59.585Z,8.06
2023-01-08T07:26:26.669Z,8.06
2023-01-08T07:28:53.996Z,8.04
2023-01-08T07:31:21.085Z,8.04
2023-01-08T07:33:48.127Z,8.04
2023-01-08T07:36:15.715Z,8.04
2023-01-08T07:38:43.120Z,8.05
2023-01-08T07:41:10.071Z,8.05
2023-01-08T07:43:36.994Z,8.06
2023-01-08T07:46:04.717Z,8.06
2023-01-08T07:48:32.293Z,8.07
2023-01-08T07:51:07.077Z,8.09
2023-01-08T07:53:35.847Z,8.09
2023-01-08T07:56:05.828Z,8.11
2023-01-08T07:58:33.720Z,8.11
2023-01-08T08:01:01.340Z,8.14
2023-01-08T08:03:28.413Z,8.15
2023-01-08T08:05:55.403Z,8.16
2023-01-08T08:08:22.320Z,8.17
2023-01-08T08:10:49.253Z,8.19
2023-01-08T08:13:16.209Z,8.17
2023-01-08T08:15:43.180Z,8.19
2023-01-08T08:18:10.533Z,8.19
2023-01-08T08:20:38.068Z,8.19
2023-01-08T08:23:10.176Z,8.20
2023-01-08T08:25:37.521Z,8.22
2023-01-08T08:28:07.618Z,8.23
2023-01-08T08:30:36.064Z,8.24
2023-01-08T08:33:05.704Z,8.23
2023-01-08T08:35:34.211Z,8.23
2023-01-08T08:38:01.300Z,8.22
2023-01-08T08:40:28.436Z,8.19
2023-01-08T08:42:57.854Z,8.15
2023-01-08T08:45:25.632Z,8.16
2023-01-08T08:47:52.733Z,8.15
2023-01-08T08:50:20.816Z,8.14
2023-01-08T08:52:48.852Z,8.11
2023-01-08T08:55:17.290Z,8.12
2023-01-08T08:57:46.521Z,8.09
2023-01-08T09:00:14.884Z,8.10
2023-01-08T09:02:41.944Z,8.09
2023-01-08T09:05:09.150Z,8.09
2023-01-08T09:07:36.110Z,8.08
2023-01-08T09:10:04.679Z,8.07
2023-01-08T09:12:31.674Z,8.09
2023-01-08T09:14:58.623Z,8.09
2023-01-08T09:17:25.876Z,8.08
2023-01-08T09:19:53.110Z,8.07
2023-01-08T09:22:20.393Z,8.08
2023-01-08T09:24:47.373Z,8.09
2023-01-08T09:27:14.750Z,8.09
2023-01-08T09:29:41.732Z,8.10
2023-01-08T09:32:09.333Z,8.10
2023-01-08T09:34:36.402Z,8.12
2023-01-08T09:37:04.633Z,8.11
2023-01-08T09:39:32.077Z,8.11
2023-01-08T09:42:03.406Z,8.12
2023-01-08T09:44:38.572Z,8.12
2023-01-08T09:47:14.215Z,8.15
2023-01-08T09:49:45.652Z,8.15
2023-01-08T09:52:14.945Z,8.17
2023-01-08T09:54:42.224Z,8.17
2023-01-08T09:57:19.619Z,8.20
2023-01-08T09:59:48.423Z,8.20
2023-01-08T10:02:22.788Z,8.23
2023-01-08T10:05:00.635Z,8.27
2023-01-08T10:07:30.425Z,8.28
2023-01-08T10:09:57.385Z,8.30
2023-01-08T10:12:33.404Z,8.33
2023-01-08T10:15:08.745Z,8.34
2023-01-08T10:17:45.350Z,8.36
2023-01-08T10:20:20.382Z,8.38
2023-01-08T10:22:48.856Z,8.41
2023-01-08T10:25:21.777Z,8.43
2023-01-08T10:28:00.032Z,8.45
2023-01-08T10:30:37.738Z,8.45
2023-01-08T10:33:15.493Z,8.45
2023-01-08T10:35:43.085Z,8.47
2023-01-08T10:38:33.237Z,8.49
2023-01-08T10:41:05.544Z,8.53
2023-01-08T10:44:02.989Z,8.55
2023-01-08T10:46:41.364Z,8.58
2023-01-08T10:49:33.331Z,8.59
2023-01-08T10:52:01.137Z,8.60
2023-01-08T10:54:40.624Z,8.64
2023-01-08T10:57:25.570Z,8.65
2023-01-08T10:59:53.369Z,8.67
2023-01-08T11:02:39.822Z,8.70
2023-01-08T11:05:10.849Z,8.74
2023-01-08T11:07:40.098Z,8.79
2023-01-08T11:10:20.189Z,8.82
2023-01-08T11:12:47.149Z,8.87
2023-01-08T11:15:19.595Z,8.92
2023-01-08T11:17:46.976Z,8.98
2023-01-08T11:20:29.610Z,9.02
2023-01-08T11:23:22.311Z,9.06
2023-01-08T11:26:20.371Z,9.09
2023-01-08T11:29:08.005Z,9.16
2023-01-08T11:32:07.460Z,9.22
2023-01-08T11:34:42.219Z,9.29
2023-01-08T11:37:19.566Z,9.37
2023-01-08T11:39:47.971Z,9.46
2023-01-08T11:42:37.861Z,9.57
2023-01-08T11:45:45.129Z,9.71
2023-01-08T11:48:42.875Z,9.86
2023-01-08T11:51:43.442Z,9.98
2023-01-08T11:54:34.135Z,10.06
2023-01-08T11:57:38.004Z,10.15
2023-01-08T12:00:28.932Z,10.27
2023-01-08T12:03:02.990Z,10.27
2023-01-08T12:05:53.082Z,10.31
2023-01-08T12:09:22.614Z,10.28
2023-01-08T12:12:07.761Z,10.26
2023-01-08T12:15:01.723Z,10.26
2023-01-08T12:17:52.138Z,10.27
2023-01-08T12:20:34.444Z,10.26
2023-01-08T12:23:42.311Z,10.23
2023-01-08T12:26:32.322Z,10.22
2023-01-08T12:29:40.275Z,10.19
2023-01-08T12:32:39.707Z,10.15
2023-01-08T12:35:18.918Z,10.12
2023-01-08T12:37:57.814Z,10.08
2023-01-08T12:40:35.668Z,10.03
2023-01-08T12:43:11.031Z,10.00
2023-01-08T12:45:45.064Z,9.98
2023-01-08T12:48:24.834Z,9.97
2023-01-08T12:51:32.016Z,9.95
2023-01-08T12:54:40.153Z,9.94
2023-01-08T12:57:29.464Z,9.91
2023-01-08T13:00:22.363Z,9.86
2023-01-08T13:02:55.896Z,9.85
2023-01-08T13:05:22.688Z,9.83
2023-01-08T13:07:54.387Z,9.83
2023-01-08T13:10:39.057Z,9.85
2023-01-08T13:13:24.318Z,9.81
2023-01-08T13:15:51.291Z,9.78
2023-01-08T13:18:21.246Z,9.78
2023-01-08T13:21:00.217Z,9.78
2023-01-08T13:23:30.666Z,9.76
2023-01-08T13:26:00.366Z,9.74
2023-01-08T13:28:34.889Z,9.73
2023-01-08T13:31:40.159Z,9.72
2023-01-08T13:34:38.708Z,9.72
2023-01-08T13:37:11.430Z,9.72
2023-01-08T13:39:43.464Z,9.70
2023-01-08T13:42:29.336Z,9.69
2023-01-08T13:45:03.800Z,9.70
2023-01-08T13:47:43.086Z,9.70
2023-01-08T13:50:30.428Z,9.70
2023-01-08T13:53:00.027Z,9.68
2023-01-08T13:55:40.407Z,9.70
2023-01-08T13:58:25.254Z,9.68
2023-01-08T14:00:55.093Z,9.69
2023-01-08T14:03:39.656Z,9.69
2023-01-08T14:06:28.138Z,9.67
2023-01-08T14:09:01.419Z,9.65
2023-01-08T14:11:41.617Z,9.66
2023-01-08T14:14:18.972Z,9.65
2023-01-08T14:16:48.602Z,9.66
2023-01-08T14:19:20.319Z,9.67
2023-01-08T14:22:01.649Z,9.67
2023-01-08T14:24:28.809Z,9.67
2023-01-08T14:26:59.311Z,9.65
2023-01-08T14:29:30.722Z,9.66
2023-01-08T14:32:00.534Z,9.67
2023-01-08T14:34:31.626Z,9.69
2023-01-08T14:36:58.497Z,9.70
2023-01-08T14:39:39.337Z,9.72
2023-01-08T14:42:42.138Z,9.78
2023-01-08T14:45:32.110Z,9.82
2023-01-08T14:48:22.413Z,9.86
2023-01-08T14:51:06.458Z,9.89
2023-01-08T14:53:57.131Z,9.92
2023-01-08T14:56:29.821Z,9.92
2023-01-08T14:58:58.199Z,9.90
2023-01-08T15:01:33.306Z,9.89
2023-01-08T15:04:19.277Z,9.90
2023-01-08T15:06:46.903Z,9.88
2023-01-08T15:09:43.174Z,9.90
2023-01-08T15:12:28.982Z,9.94
2023-01-08T15:14:56.033Z,9.94
2023-01-08T15:17:27.776Z,9.94
2023-01-08T15:19:59.580Z,9.94
2023-01-08T15:22:32.885Z,9.93
2023-01-08T15:25:04.962Z,9.92
2023-01-08T15:27:34.279Z,9.88
2023-01-08T15:30:03.446Z,9.87
2023-01-08T15:32:37.162Z,9.85
2023-01-08T15:35:16.317Z,9.81
2023-01-08T15:37:43.333Z,9.79
2023-01-08T15:40:12.438Z,9.78
2023-01-08T15:42:57.658Z,9.77
2023-01-08T15:45:32.241Z,9.74
2023-01-08T15:47:59.461Z,9.73
2023-01-08T15:50:28.285Z,9.70
2023-01-08T15:52:57.384Z,9.70
2023-01-08T15:55:25.264Z,9.68
2023-01-08T15:57:52.468Z,9.69
2023-01-08T16:00:22.431Z,9.68
2023-01-08T16:02:51.943Z,9.64
2023-01-08T16:05:21.741Z,9.62
2023-01-08T16:07:48.815Z,9.61
2023-01-08T16:10:17.158Z,9.57
2023-01-08T16:12:44.468Z,9.54
2023-01-08T16:15:13.249Z,9.53
2023-01-08T16:17:40.597Z,9.53
2023-01-08T16:20:09.628Z,9.53
2023-01-08T16:22:36.640Z,9.51
2023-01-08T16:25:04.363Z,9.50
2023-01-08T16:27:32.599Z,9.50
2023-01-08T16:29:59.907Z,9.49
2023-01-08T16:32:26.832Z,9.49
2023-01-08T16:34:54.822Z,9.49
2023-01-08T16:37:22.437Z,9.47
2023-01-08T16:39:49.749Z,9.47
2023-01-08T16:42:16.757Z,9.46
2023-01-08T16:44:44.994Z,9.45
2023-01-08T16:47:12.013Z,9.43
2023-01-08T16:49:41.457Z,9.44
2023-01-08T16:52:09.462Z,9.43
2023-01-08T16:54:37.217Z,9.44
2023-01-08T16:57:04.191Z,9.42
2023-01-08T16:59:32.856Z,9.43
2023-01-08T17:02:00.409Z,9.44
2023-01-08T17:04:29.620Z,9.44
2023-01-08T17:06:57.100Z,9.43
2023-01-08T17:09:25.652Z,9.43
2023-01-08T17:11:52.667Z,9.42
2023-01-08T17:14:19.596Z,9.43
2023-01-08T17:16:47.491Z,9.42
2023-01-08T17:19:15.171Z,9.41
2023-01-08T17:21:42.121Z,9.42
2023-01-08T17:24:09.517Z,9.41
2023-01-08T17:26:36.506Z,9.40
2023-01-08T17:29:03.721Z,9.40
2023-01-08T17:31:30.702Z,9.38
2023-01-08T17:33:57.679Z,9.39
2023-01-08T17:36:26.684Z,9.39
2023-01-08T17:38:54.346Z,9.37
2023-01-08T17:41:40.808Z,9.36
2023-01-08T17:44:12.086Z,9.34
2023-01-08T17:46:42.341Z,9.33
2023-01-08T17:49:11.894Z,9.32
2023-01-08T17:51:40.869Z,9.31
2023-01-08T17:54:15.020Z,9.30
2023-01-08T17:56:42.671Z,9.31
2023-01-08T17:59:14.986Z,9.29
2023-01-08T18:01:42.068Z,9.29
2023-01-08T18:04:09.045Z,9.27
2023-01-08T18:06:36.107Z,9.26
2023-01-08T18:09:03.731Z,9.27
2023-01-08T18:11:30.901Z,9.27
2023-01-08T18:14:00.627Z,9.26
2023-01-08T18:16:29.117Z,9.26
2023-01-08T18:18:58.024Z,9.24
2023-01-08T18:21:26.234Z,9.24
2023-01-08T18:23:53.461Z,9.22
2023-01-08T18:26:22.258Z,9.22
2023-01-08T18:28:51.510Z,9.20
2023-01-08T18:31:18.616Z,9.19
2023-01-08T18:33:45.551Z,9.17
2023-01-08T18:36:13.090Z,9.17
2023-01-08T18:38:43.331Z,9.16
2023-01-08T18:41:33.520Z,9.15
2023-01-08T18:44:01.996Z,9.13
2023-01-08T18:46:28.916Z,9.14
2023-01-08T18:48:56.082Z,9.14
2023-01-08T18:51:23.147Z,9.13
2023-01-08T18:53:50.311Z,9.12
2023-01-08T18:56:30.174Z,9.11
2023-01-08T18:58:57.936Z,9.10
2023-01-08T19:01:25.628Z,9.10
2023-01-08T19:03:52.676Z,9.08
2023-01-08T19:06:19.683Z,9.08
2023-01-08T19:08:46.950Z,9.08
2023-01-08T19:11:14.923Z,9.08
2023-01-08T19:13:42.293Z,9.09
2023-01-08T19:16:13.226Z,9.08
2023-01-08T19:18:40.316Z,9.08
2023-01-08T19:21:09.616Z,9.06
2023-01-08T19:23:36.629Z,9.06
2023-01-08T19:26:07.980Z,9.06
2023-01-08T19:28:35.799Z,9.06
2023-01-08T19:31:03.382Z,9.06
2023-01-08T19:33:30.493Z,9.06
2023-01-08T19:36:05.572Z,9.06
2023-01-08T19:38:32.541Z,9.07
2023-01-08T19:41:00.275Z,9.07
2023-01-08T19:43:42.074Z,9.07
2023-01-08T19:46:11.944Z,9.06
2023-01-08T19:48:40.161Z,9.05
2023-01-08T19:51:09.442Z,9.05
2023-01-08T19:53:36.720Z,9.02
2023-01-08T19:56:10.462Z,9.02
2023-01-08T19:58:37.780Z,9.02
2023-01-08T20:01:20.892Z,9.00
2023-01-08T20:03:48.438Z,8.99
2023-01-08T20:06:21.070Z,8.99
2023-01-08T20:08:54.053Z,8.98
2023-01-08T20:11:22.434Z,8.97
2023-01-08T20:13:51.332Z,8.98
2023-01-08T20:16:20.616Z,8.97
2023-01-08T20:18:48.275Z,8.97
2023-01-08T20:21:23.866Z,8.98
2023-01-08T20:24:03.987Z,8.98
2023-01-08T20:26:34.003Z,8.98
2023-01-08T20:29:00.967Z,8.98
2023-01-08T20:31:30.616Z,8.99
2023-01-08T20:34:01.583Z,8.99
2023-01-08T20:36:30.999Z,8.97
2023-01-08T20:39:02.020Z,8.98
2023-01-08T20:41:29.418Z,8.97
2023-01-08T20:43:56.479Z,8.96
2023-01-08T20:46:29.510Z,8.96
2023-01-08T20:49:04.835Z,8.97
2023-01-08T20:51:37.199Z,8.95
2023-01-08T20:54:08.451Z,8.96
2023-01-08T20:56:35.428Z,8.96
2023-01-08T20:59:02.903Z,8.96
2023-01-08T21:01:33.714Z,8.95
2023-01-08T21:04:02.008Z,8.93
2023-01-08T21:06:31.846Z,8.92
2023-01-08T21:09:03.099Z,8.93
2023-01-08T21:11:30.639Z,8.92
2023-01-08T21:13:57.586Z,8.92
2023-01-08T21:16:28.355Z,8.91
2023-01-08T21:18:55.623Z,8.89
2023-01-08T21:21:31.930Z,8.90
2023-01-08T21:24:04.963Z,8.90
2023-01-08T21:26:33.847Z,8.88
2023-01-08T21:29:05.955Z,8.86
2023-01-08T21:31:33.917Z,8.87
2023-01-08T21:34:03.041Z,8.87
2023-01-08T21:36:31.737Z,8.86
2023-01-08T21:39:00.728Z,8.86
2023-01-08T21:41:48.336Z,8.83
2023-01-08T21:44:37.750Z,8.82
2023-01-08T21:47:09.377Z,8.80
2023-01-08T21:49:36.562Z,8.77
2023-01-08T21:52:23.444Z,8.76
2023-01-08T21:54:50.827Z,8.74
2023-01-08T21:57:18.081Z,8.72
2023-01-08T21:59:45.016Z,8.72
2023-01-08T22:02:20.680Z,8.70
2023-01-08T22:04:48.281Z,8.68
2023-01-08T22:07:15.466Z,8.66
2023-01-08T22:09:42.379Z,8.65
2023-01-08T22:12:09.362Z,8.63
2023-01-08T22:14:36.563Z,8.61
2023-01-08T22:17:04.077Z,8.60
2023-01-08T22:19:31.193Z,8.58
2023-01-08T22:21:58.129Z,8.56
2023-01-08T22:24:25.217Z,8.55
2023-01-08T22:26:52.146Z,8.54
2023-01-08T22:29:19.063Z,8.52
2023-01-08T22:31:46.043Z,8.51
2023-01-08T22:34:17.006Z,8.50
2023-01-08T22:36:45.254Z,8.46
2023-01-08T22:39:12.698Z,8.45
2023-01-08T22:41:39.591Z,8.44
2023-01-08T22:44:06.806Z,8.43
2023-01-08T22:46:33.877Z,8.41
2023-01-08T22:49:00.789Z,8.40
2023-01-08T22:51:27.908Z,8.39
2023-01-08T22:53:59.228Z,8.37
2023-01-08T22:56:27.073Z,8.35
2023-01-08T22:58:54.901Z,8.33
2023-01-08T23:01:25.153Z,8.30
2023-01-08T23:03:55.228Z,8.28
2023-01-08T23:06:24.270Z,8.26
2023-01-08T23:08:51.843Z,8.23
2023-01-08T23:11:20.842Z,8.22
2023-01-08T23:13:49.054Z,8.21
2023-01-08T23:16:17.907Z,8.19
2023-01-08T23:18:45.691Z,8.20
2023-01-08T23:21:19.027Z,8.20
2023-01-08T23:23:46.333Z,8.19
2023-01-08T23:26:26.885Z,8.19
2023-01-08T23:28:56.628Z,8.17
2023-01-08T23:31:30.751Z,8.18
2023-01-08T23:33:58.132Z,8.18
2023-01-08T23:36:25.881Z,8.16
2023-01-08T23:38:55.588Z,8.15
2023-01-08T23:41:33.800Z,8.16
2023-01-08T23:44:05.632Z,8.15
2023-01-08T23:46:32.721Z,8.13
2023-01-08T23:48:59.666Z,8.12
2023-01-08T23:51:26.667Z,8.11
2023-01-08T23:53:53.581Z,8.09
2023-01-08T23:56:21.271Z,8.07
2023-01-08T23:58:49.083Z,8.06
